Terminal Aerodrome Forecast
Issued by NWS Cleveland, OH

Home | Current Version | Previous Version | Graphics & Text | Print | Product List | Glossary On
Versions: 1 2 3 4 5 6 7 8 9 10 11 12 13 14 15 16 17 18 19 20 21
068
FTUS41 KCLE 301546 AAB
TAFCAK
TAF AMD
KCAK 301546Z 3016/0112 17012KT 4SM BR OVC004
      TEMPO 3017/3021 6SM -RA BR BKN010
     FM302100 24010KT 6SM -SHRA BKN018
     FM010300 26012KT P6SM BKN025=

USA.gov is the U.S. government's official web portal to all federal, state and local government web resources and services.